sensor_id;sensor_type;location;lat;lon;timestamp;P1;durP1;ratioP1;P2;durP2;ratioP2
41875;SDS011;27555;50.808;4.402;2023-05-23T00:01:40;52.38;;;21.88;;
41875;SDS011;27555;50.808;4.402;2023-05-23T00:04:07;55.78;;;21.23;;
41875;SDS011;27555;50.808;4.402;2023-05-23T00:06:34;59.15;;;23.73;;
41875;SDS011;27555;50.808;4.402;2023-05-23T00:09:00;60.83;;;22.58;;
41875;SDS011;27555;50.808;4.402;2023-05-23T00:11:26;66.40;;;25.45;;
41875;SDS011;27555;50.808;4.402;2023-05-23T00:13:53;52.53;;;23.30;;
41875;SDS011;27555;50.808;4.402;2023-05-23T00:16:19;59.20;;;24.35;;
41875;SDS011;27555;50.808;4.402;2023-05-23T00:18:46;63.42;;;25.30;;
41875;SDS011;27555;50.808;4.402;2023-05-23T00:21:14;49.33;;;23.25;;
41875;SDS011;27555;50.808;4.402;2023-05-23T00:23:39;61.55;;;24.92;;
41875;SDS011;27555;50.808;4.402;2023-05-23T00:26:08;72.20;;;26.25;;
41875;SDS011;27555;50.808;4.402;2023-05-23T00:28:36;62.85;;;23.45;;
41875;SDS011;27555;50.808;4.402;2023-05-23T00:31:02;55.50;;;25.15;;
41875;SDS011;27555;50.808;4.402;2023-05-23T00:33:27;59.75;;;24.35;;
41875;SDS011;27555;50.808;4.402;2023-05-23T00:35:53;54.92;;;23.55;;
41875;SDS011;27555;50.808;4.402;2023-05-23T00:38:19;58.47;;;23.58;;
41875;SDS011;27555;50.808;4.402;2023-05-23T00:40:45;54.30;;;22.45;;
41875;SDS011;27555;50.808;4.402;2023-05-23T00:43:12;61.40;;;24.02;;
41875;SDS011;27555;50.808;4.402;2023-05-23T00:45:37;57.63;;;23.40;;
41875;SDS011;27555;50.808;4.402;2023-05-23T00:48:04;48.60;;;21.35;;
41875;SDS011;27555;50.808;4.402;2023-05-23T00:50:31;60.35;;;22.13;;
41875;SDS011;27555;50.808;4.402;2023-05-23T00:52:57;47.40;;;21.95;;
41875;SDS011;27555;50.808;4.402;2023-05-23T00:55:25;48.17;;;19.67;;
41875;SDS011;27555;50.808;4.402;2023-05-23T00:57:51;46.10;;;22.92;;
41875;SDS011;27555;50.808;4.402;2023-05-23T01:00:19;46.00;;;20.05;;
41875;SDS011;27555;50.808;4.402;2023-05-23T01:02:46;42.22;;;19.17;;
41875;SDS011;27555;50.808;4.402;2023-05-23T01:05:16;47.78;;;20.88;;
41875;SDS011;27555;50.808;4.402;2023-05-23T01:07:42;44.97;;;20.67;;
41875;SDS011;27555;50.808;4.402;2023-05-23T01:10:11;43.60;;;20.23;;
41875;SDS011;27555;50.808;4.402;2023-05-23T01:15:33;42.75;;;20.23;;
41875;SDS011;27555;50.808;4.402;2023-05-23T01:18:02;51.50;;;21.27;;
41875;SDS011;27555;50.808;4.402;2023-05-23T01:20:49;43.58;;;19.42;;
41875;SDS011;27555;50.808;4.402;2023-05-23T01:28:58;48.67;;;23.65;;
41875;SDS011;27555;50.808;4.402;2023-05-23T01:31:34;61.40;;;24.50;;
41875;SDS011;27555;50.808;4.402;2023-05-23T01:34:03;43.92;;;22.50;;
41875;SDS011;27555;50.808;4.402;2023-05-23T01:36:32;51.10;;;22.80;;
41875;SDS011;27555;50.808;4.402;2023-05-23T01:38:59;61.33;;;23.05;;
41875;SDS011;27555;50.808;4.402;2023-05-23T01:41:25;44.88;;;20.00;;
41875;SDS011;27555;50.808;4.402;2023-05-23T01:43:52;53.50;;;22.27;;
41875;SDS011;27555;50.808;4.402;2023-05-23T01:46:19;47.72;;;21.40;;
41875;SDS011;27555;50.808;4.402;2023-05-23T01:48:45;45.03;;;19.55;;
41875;SDS011;27555;50.808;4.402;2023-05-23T01:51:12;45.00;;;20.08;;
41875;SDS011;27555;50.808;4.402;2023-05-23T01:53:38;37.38;;;17.50;;
41875;SDS011;27555;50.808;4.402;2023-05-23T01:56:04;38.03;;;16.95;;
41875;SDS011;27555;50.808;4.402;2023-05-23T01:58:30;46.75;;;20.50;;
41875;SDS011;27555;50.808;4.402;2023-05-23T02:00:56;32.67;;;18.15;;
41875;SDS011;27555;50.808;4.402;2023-05-23T02:03:22;39.17;;;19.10;;
41875;SDS011;27555;50.808;4.402;2023-05-23T02:05:48;35.58;;;16.85;;
41875;SDS011;27555;50.808;4.402;2023-05-23T02:08:13;39.72;;;17.00;;
41875;SDS011;27555;50.808;4.402;2023-05-23T02:10:39;35.00;;;18.25;;
41875;SDS011;27555;50.808;4.402;2023-05-23T02:13:04;41.65;;;18.27;;
41875;SDS011;27555;50.808;4.402;2023-05-23T02:15:30;31.70;;;16.60;;
41875;SDS011;27555;50.808;4.402;2023-05-23T02:17:56;35.88;;;18.05;;
41875;SDS011;27555;50.808;4.402;2023-05-23T02:20:21;34.00;;;17.83;;
41875;SDS011;27555;50.808;4.402;2023-05-23T02:22:47;42.22;;;17.15;;
41875;SDS011;27555;50.808;4.402;2023-05-23T02:25:12;32.67;;;16.85;;
41875;SDS011;27555;50.808;4.402;2023-05-23T02:27:39;33.72;;;17.08;;
41875;SDS011;27555;50.808;4.402;2023-05-23T02:30:05;35.80;;;16.90;;
41875;SDS011;27555;50.808;4.402;2023-05-23T02:32:31;34.58;;;17.77;;
41875;SDS011;27555;50.808;4.402;2023-05-23T02:34:57;30.65;;;17.52;;
41875;SDS011;27555;50.808;4.402;2023-05-23T02:37:23;36.72;;;17.65;;
41875;SDS011;27555;50.808;4.402;2023-05-23T02:39:49;44.03;;;19.38;;
41875;SDS011;27555;50.808;4.402;2023-05-23T02:42:15;31.23;;;16.38;;
41875;SDS011;27555;50.808;4.402;2023-05-23T02:44:40;40.30;;;18.73;;
41875;SDS011;27555;50.808;4.402;2023-05-23T02:47:06;26.27;;;14.43;;
41875;SDS011;27555;50.808;4.402;2023-05-23T02:49:32;28.92;;;13.75;;
41875;SDS011;27555;50.808;4.402;2023-05-23T02:51:57;26.02;;;13.23;;
41875;SDS011;27555;50.808;4.402;2023-05-23T02:54:23;21.15;;;12.60;;
41875;SDS011;27555;50.808;4.402;2023-05-23T02:56:48;23.05;;;13.32;;
41875;SDS011;27555;50.808;4.402;2023-05-23T02:59:16;28.05;;;12.93;;
41875;SDS011;27555;50.808;4.402;2023-05-23T03:01:41;22.90;;;13.05;;
41875;SDS011;27555;50.808;4.402;2023-05-23T03:04:07;28.05;;;12.50;;
41875;SDS011;27555;50.808;4.402;2023-05-23T03:06:33;22.77;;;13.30;;
41875;SDS011;27555;50.808;4.402;2023-05-23T03:09:00;25.08;;;12.65;;
41875;SDS011;27555;50.808;4.402;2023-05-23T03:11:26;23.05;;;12.80;;
41875;SDS011;27555;50.808;4.402;2023-05-23T03:13:53;24.58;;;12.77;;
41875;SDS011;27555;50.808;4.402;2023-05-23T03:16:20;22.90;;;12.68;;
41875;SDS011;27555;50.808;4.402;2023-05-23T03:18:47;26.90;;;13.48;;
41875;SDS011;27555;50.808;4.402;2023-05-23T03:21:13;23.85;;;11.82;;
41875;SDS011;27555;50.808;4.402;2023-05-23T03:23:38;28.50;;;13.98;;
41875;SDS011;27555;50.808;4.402;2023-05-23T03:26:04;30.23;;;14.05;;
41875;SDS011;27555;50.808;4.402;2023-05-23T03:28:30;30.63;;;15.88;;
41875;SDS011;27555;50.808;4.402;2023-05-23T03:30:56;33.80;;;16.33;;
41875;SDS011;27555;50.808;4.402;2023-05-23T03:33:22;33.65;;;16.05;;
41875;SDS011;27555;50.808;4.402;2023-05-23T03:35:48;29.92;;;16.20;;
41875;SDS011;27555;50.808;4.402;2023-05-23T03:38:16;35.25;;;18.25;;
41875;SDS011;27555;50.808;4.402;2023-05-23T03:40:41;39.65;;;17.38;;
41875;SDS011;27555;50.808;4.402;2023-05-23T03:43:07;42.30;;;18.45;;
41875;SDS011;27555;50.808;4.402;2023-05-23T03:45:33;33.53;;;16.67;;
41875;SDS011;27555;50.808;4.402;2023-05-23T03:47:59;35.00;;;18.63;;
41875;SDS011;27555;50.808;4.402;2023-05-23T03:50:25;40.47;;;18.50;;
41875;SDS011;27555;50.808;4.402;2023-05-23T03:52:51;39.50;;;21.30;;
41875;SDS011;27555;50.808;4.402;2023-05-23T03:55:17;40.47;;;20.80;;
41875;SDS011;27555;50.808;4.402;2023-05-23T03:57:48;37.75;;;21.20;;
41875;SDS011;27555;50.808;4.402;2023-05-23T04:00:14;38.65;;;23.10;;
41875;SDS011;27555;50.808;4.402;2023-05-23T04:02:40;44.15;;;21.75;;
41875;SDS011;27555;50.808;4.402;2023-05-23T04:05:06;36.97;;;22.80;;
41875;SDS011;27555;50.808;4.402;2023-05-23T04:07:32;41.35;;;21.48;;
41875;SDS011;27555;50.808;4.402;2023-05-23T04:09:59;47.35;;;24.75;;
41875;SDS011;27555;50.808;4.402;2023-05-23T04:12:25;50.75;;;27.02;;
41875;SDS011;27555;50.808;4.402;2023-05-23T04:14:50;42.70;;;22.63;;
41875;SDS011;27555;50.808;4.402;2023-05-23T04:17:16;30.02;;;16.55;;
41875;SDS011;27555;50.808;4.402;2023-05-23T04:19:42;40.45;;;16.70;;
41875;SDS011;27555;50.808;4.402;2023-05-23T04:22:08;28.65;;;15.68;;
41875;SDS011;27555;50.808;4.402;2023-05-23T04:24:34;25.33;;;15.02;;
41875;SDS011;27555;50.808;4.402;2023-05-23T04:27:01;24.80;;;12.60;;
41875;SDS011;27555;50.808;4.402;2023-05-23T04:29:26;20.75;;;11.40;;
41875;SDS011;27555;50.808;4.402;2023-05-23T04:31:55;23.23;;;10.45;;
41875;SDS011;27555;50.808;4.402;2023-05-23T04:34:21;20.83;;;10.88;;
41875;SDS011;27555;50.808;4.402;2023-05-23T04:36:47;20.40;;;9.07;;
41875;SDS011;27555;50.808;4.402;2023-05-23T04:39:13;18.10;;;9.15;;
41875;SDS011;27555;50.808;4.402;2023-05-23T04:41:39;15.90;;;8.57;;
41875;SDS011;27555;50.808;4.402;2023-05-23T04:44:06;16.67;;;8.77;;
41875;SDS011;27555;50.808;4.402;2023-05-23T04:46:34;17.75;;;8.82;;
41875;SDS011;27555;50.808;4.402;2023-05-23T04:49:00;20.80;;;8.45;;
41875;SDS011;27555;50.808;4.402;2023-05-23T04:51:27;20.15;;;8.82;;
41875;SDS011;27555;50.808;4.402;2023-05-23T04:53:52;15.48;;;7.97;;
41875;SDS011;27555;50.808;4.402;2023-05-23T04:56:18;13.07;;;7.63;;
41875;SDS011;27555;50.808;4.402;2023-05-23T04:58:46;13.73;;;8.05;;
41875;SDS011;27555;50.808;4.402;2023-05-23T05:01:12;14.57;;;8.52;;
41875;SDS011;27555;50.808;4.402;2023-05-23T05:03:38;15.23;;;8.85;;
41875;SDS011;27555;50.808;4.402;2023-05-23T05:06:04;18.65;;;8.55;;
41875;SDS011;27555;50.808;4.402;2023-05-23T05:08:30;19.67;;;8.18;;
41875;SDS011;27555;50.808;4.402;2023-05-23T05:10:56;17.90;;;8.02;;
41875;SDS011;27555;50.808;4.402;2023-05-23T05:13:22;22.33;;;8.90;;
41875;SDS011;27555;50.808;4.402;2023-05-23T05:15:48;18.42;;;8.57;;
41875;SDS011;27555;50.808;4.402;2023-05-23T05:18:13;16.08;;;8.65;;
41875;SDS011;27555;50.808;4.402;2023-05-23T05:20:40;18.92;;;9.88;;
41875;SDS011;27555;50.808;4.402;2023-05-23T05:23:05;18.17;;;10.85;;
41875;SDS011;27555;50.808;4.402;2023-05-23T05:25:33;25.92;;;11.00;;
41875;SDS011;27555;50.808;4.402;2023-05-23T05:28:00;24.92;;;12.55;;
41875;SDS011;27555;50.808;4.402;2023-05-23T05:30:30;24.05;;;11.75;;
41875;SDS011;27555;50.808;4.402;2023-05-23T05:32:59;26.27;;;11.90;;
41875;SDS011;27555;50.808;4.402;2023-05-23T05:35:26;23.92;;;12.43;;
41875;SDS011;27555;50.808;4.402;2023-05-23T05:37:51;24.98;;;12.02;;
41875;SDS011;27555;50.808;4.402;2023-05-23T05:40:17;29.27;;;12.75;;
41875;SDS011;27555;50.808;4.402;2023-05-23T05:42:43;21.75;;;12.35;;
41875;SDS011;27555;50.808;4.402;2023-05-23T05:45:08;22.73;;;12.05;;
41875;SDS011;27555;50.808;4.402;2023-05-23T05:47:35;21.15;;;11.25;;
41875;SDS011;27555;50.808;4.402;2023-05-23T05:50:03;31.83;;;11.10;;
41875;SDS011;27555;50.808;4.402;2023-05-23T05:52:33;26.58;;;11.63;;
41875;SDS011;27555;50.808;4.402;2023-05-23T05:55:02;25.13;;;11.70;;
41875;SDS011;27555;50.808;4.402;2023-05-23T05:57:30;23.70;;;10.75;;
41875;SDS011;27555;50.808;4.402;2023-05-23T05:59:56;21.15;;;9.43;;
41875;SDS011;27555;50.808;4.402;2023-05-23T06:02:21;22.35;;;10.07;;
41875;SDS011;27555;50.808;4.402;2023-05-23T06:04:47;27.23;;;10.77;;
41875;SDS011;27555;50.808;4.402;2023-05-23T06:07:13;37.67;;;10.32;;
41875;SDS011;27555;50.808;4.402;2023-05-23T06:09:40;40.20;;;11.27;;
41875;SDS011;27555;50.808;4.402;2023-05-23T06:12:05;36.72;;;10.68;;
41875;SDS011;27555;50.808;4.402;2023-05-23T06:14:31;35.45;;;10.75;;
41875;SDS011;27555;50.808;4.402;2023-05-23T06:16:57;27.25;;;10.02;;
41875;SDS011;27555;50.808;4.402;2023-05-23T06:19:23;39.13;;;11.05;;
41875;SDS011;27555;50.808;4.402;2023-05-23T06:21:49;34.88;;;11.50;;
41875;SDS011;27555;50.808;4.402;2023-05-23T06:24:14;29.80;;;11.18;;
41875;SDS011;27555;50.808;4.402;2023-05-23T06:26:40;37.17;;;12.15;;
41875;SDS011;27555;50.808;4.402;2023-05-23T06:29:06;30.88;;;10.73;;
41875;SDS011;27555;50.808;4.402;2023-05-23T06:31:31;35.67;;;10.48;;
41875;SDS011;27555;50.808;4.402;2023-05-23T06:33:57;26.95;;;8.95;;
41875;SDS011;27555;50.808;4.402;2023-05-23T06:36:23;35.63;;;9.98;;
41875;SDS011;27555;50.808;4.402;2023-05-23T06:38:48;39.38;;;11.00;;
41875;SDS011;27555;50.808;4.402;2023-05-23T06:41:14;34.83;;;11.85;;
41875;SDS011;27555;50.808;4.402;2023-05-23T06:43:39;48.03;;;13.23;;
41875;SDS011;27555;50.808;4.402;2023-05-23T06:46:05;26.88;;;10.90;;
41875;SDS011;27555;50.808;4.402;2023-05-23T06:48:31;39.40;;;11.35;;
41875;SDS011;27555;50.808;4.402;2023-05-23T06:50:56;28.33;;;11.02;;
41875;SDS011;27555;50.808;4.402;2023-05-23T06:53:22;24.00;;;9.38;;
41875;SDS011;27555;50.808;4.402;2023-05-23T06:55:47;26.17;;;10.00;;
41875;SDS011;27555;50.808;4.402;2023-05-23T06:58:13;19.48;;;8.65;;
41875;SDS011;27555;50.808;4.402;2023-05-23T07:00:39;20.25;;;8.02;;
41875;SDS011;27555;50.808;4.402;2023-05-23T07:03:05;20.13;;;7.85;;
41875;SDS011;27555;50.808;4.402;2023-05-23T07:05:31;22.73;;;8.68;;
41875;SDS011;27555;50.808;4.402;2023-05-23T07:07:58;22.65;;;8.68;;
41875;SDS011;27555;50.808;4.402;2023-05-23T07:10:24;14.95;;;6.15;;
41875;SDS011;27555;50.808;4.402;2023-05-23T07:12:50;18.80;;;6.78;;
41875;SDS011;27555;50.808;4.402;2023-05-23T07:15:16;20.33;;;7.38;;
41875;SDS011;27555;50.808;4.402;2023-05-23T07:17:42;18.98;;;7.18;;
41875;SDS011;27555;50.808;4.402;2023-05-23T07:20:08;16.25;;;7.13;;
41875;SDS011;27555;50.808;4.402;2023-05-23T07:22:34;18.70;;;7.07;;
41875;SDS011;27555;50.808;4.402;2023-05-23T07:25:00;18.75;;;6.60;;
41875;SDS011;27555;50.808;4.402;2023-05-23T07:27:26;22.15;;;7.78;;
41875;SDS011;27555;50.808;4.402;2023-05-23T07:29:52;17.17;;;6.03;;
41875;SDS011;27555;50.808;4.402;2023-05-23T07:32:17;17.17;;;6.13;;
41875;SDS011;27555;50.808;4.402;2023-05-23T07:34:43;16.08;;;6.20;;
41875;SDS011;27555;50.808;4.402;2023-05-23T07:37:09;23.83;;;7.25;;
41875;SDS011;27555;50.808;4.402;2023-05-23T07:39:34;17.80;;;6.68;;
41875;SDS011;27555;50.808;4.402;2023-05-23T07:42:00;17.35;;;5.00;;
41875;SDS011;27555;50.808;4.402;2023-05-23T07:44:26;15.02;;;5.50;;
41875;SDS011;27555;50.808;4.402;2023-05-23T07:46:52;19.38;;;5.60;;
41875;SDS011;27555;50.808;4.402;2023-05-23T07:49:18;14.27;;;4.90;;
41875;SDS011;27555;50.808;4.402;2023-05-23T07:51:44;13.20;;;4.70;;
41875;SDS011;27555;50.808;4.402;2023-05-23T07:54:09;12.20;;;4.28;;
41875;SDS011;27555;50.808;4.402;2023-05-23T07:56:35;16.13;;;5.10;;
41875;SDS011;27555;50.808;4.402;2023-05-23T07:59:03;17.08;;;5.93;;
41875;SDS011;27555;50.808;4.402;2023-05-23T08:01:29;16.35;;;5.10;;
41875;SDS011;27555;50.808;4.402;2023-05-23T08:03:58;15.48;;;4.65;;
41875;SDS011;27555;50.808;4.402;2023-05-23T08:06:23;14.88;;;4.88;;
41875;SDS011;27555;50.808;4.402;2023-05-23T08:08:49;15.82;;;4.60;;
41875;SDS011;27555;50.808;4.402;2023-05-23T08:11:15;17.10;;;5.15;;
41875;SDS011;27555;50.808;4.402;2023-05-23T08:13:41;22.83;;;6.35;;
41875;SDS011;27555;50.808;4.402;2023-05-23T08:16:06;20.40;;;5.82;;
41875;SDS011;27555;50.808;4.402;2023-05-23T08:18:32;20.30;;;5.43;;
41875;SDS011;27555;50.808;4.402;2023-05-23T08:20:57;13.20;;;5.45;;
41875;SDS011;27555;50.808;4.402;2023-05-23T08:23:23;18.42;;;7.18;;
41875;SDS011;27555;50.808;4.402;2023-05-23T08:25:49;25.95;;;6.90;;
41875;SDS011;27555;50.808;4.402;2023-05-23T08:28:15;19.13;;;6.63;;
41875;SDS011;27555;50.808;4.402;2023-05-23T08:30:41;10.68;;;5.68;;
41875;SDS011;27555;50.808;4.402;2023-05-23T08:33:06;13.77;;;5.88;;
41875;SDS011;27555;50.808;4.402;2023-05-23T08:35:32;12.10;;;5.18;;
41875;SDS011;27555;50.808;4.402;2023-05-23T08:38:00;20.58;;;6.80;;
41875;SDS011;27555;50.808;4.402;2023-05-23T08:40:26;24.35;;;7.00;;
41875;SDS011;27555;50.808;4.402;2023-05-23T08:42:56;20.00;;;6.18;;
41875;SDS011;27555;50.808;4.402;2023-05-23T08:45:21;22.02;;;7.15;;
41875;SDS011;27555;50.808;4.402;2023-05-23T08:47:47;22.00;;;5.97;;
41875;SDS011;27555;50.808;4.402;2023-05-23T08:50:16;17.48;;;7.03;;
41875;SDS011;27555;50.808;4.402;2023-05-23T08:52:56;17.08;;;6.32;;
41875;SDS011;27555;50.808;4.402;2023-05-23T08:55:23;29.02;;;7.57;;
41875;SDS011;27555;50.808;4.402;2023-05-23T08:57:51;13.90;;;5.60;;
41875;SDS011;27555;50.808;4.402;2023-05-23T09:00:17;18.48;;;6.43;;
41875;SDS011;27555;50.808;4.402;2023-05-23T09:02:44;26.73;;;6.00;;
41875;SDS011;27555;50.808;4.402;2023-05-23T09:05:11;19.33;;;6.25;;
41875;SDS011;27555;50.808;4.402;2023-05-23T09:07:40;22.02;;;5.18;;
41875;SDS011;27555;50.808;4.402;2023-05-23T09:10:07;16.30;;;5.13;;
41875;SDS011;27555;50.808;4.402;2023-05-23T09:12:34;20.40;;;5.55;;
41875;SDS011;27555;50.808;4.402;2023-05-23T09:15:02;21.80;;;5.72;;
41875;SDS011;27555;50.808;4.402;2023-05-23T09:17:30;12.85;;;4.55;;
41875;SDS011;27555;50.808;4.402;2023-05-23T09:19:57;13.27;;;5.28;;
41875;SDS011;27555;50.808;4.402;2023-05-23T09:22:23;12.07;;;5.25;;
41875;SDS011;27555;50.808;4.402;2023-05-23T09:24:55;23.92;;;6.68;;
41875;SDS011;27555;50.808;4.402;2023-05-23T09:27:21;21.75;;;7.43;;
41875;SDS011;27555;50.808;4.402;2023-05-23T09:29:50;31.45;;;7.50;;
41875;SDS011;27555;50.808;4.402;2023-05-23T09:32:16;17.85;;;6.03;;
41875;SDS011;27555;50.808;4.402;2023-05-23T09:37:24;19.80;;;6.20;;
41875;SDS011;27555;50.808;4.402;2023-05-23T09:40:00;13.80;;;5.25;;
41875;SDS011;27555;50.808;4.402;2023-05-23T09:42:32;17.48;;;5.70;;
41875;SDS011;27555;50.808;4.402;2023-05-23T09:44:58;11.95;;;5.13;;
41875;SDS011;27555;50.808;4.402;2023-05-23T09:47:24;17.35;;;4.90;;
41875;SDS011;27555;50.808;4.402;2023-05-23T09:49:50;12.88;;;4.63;;
41875;SDS011;27555;50.808;4.402;2023-05-23T09:52:16;13.70;;;4.95;;
41875;SDS011;27555;50.808;4.402;2023-05-23T09:54:44;17.67;;;5.40;;
41875;SDS011;27555;50.808;4.402;2023-05-23T09:57:10;14.60;;;4.55;;
41875;SDS011;27555;50.808;4.402;2023-05-23T09:59:41;18.73;;;5.13;;
41875;SDS011;27555;50.808;4.402;2023-05-23T10:02:15;16.23;;;5.35;;
41875;SDS011;27555;50.808;4.402;2023-05-23T10:04:48;17.42;;;6.47;;
41875;SDS011;27555;50.808;4.402;2023-05-23T10:07:17;13.70;;;5.50;;
41875;SDS011;27555;50.808;4.402;2023-05-23T10:09:47;19.42;;;6.85;;
41875;SDS011;27555;50.808;4.402;2023-05-23T10:14:56;17.05;;;5.95;;
41875;SDS011;27555;50.808;4.402;2023-05-23T10:17:44;18.13;;;5.28;;
41875;SDS011;27555;50.808;4.402;2023-05-23T10:20:11;16.42;;;6.20;;
41875;SDS011;27555;50.808;4.402;2023-05-23T10:22:40;18.47;;;5.27;;
41875;SDS011;27555;50.808;4.402;2023-05-23T10:25:07;12.13;;;4.75;;
41875;SDS011;27555;50.808;4.402;2023-05-23T10:27:38;12.18;;;4.80;;
41875;SDS011;27555;50.808;4.402;2023-05-23T10:30:04;10.18;;;4.35;;
41875;SDS011;27555;50.808;4.402;2023-05-23T10:32:31;7.45;;;3.50;;
41875;SDS011;27555;50.808;4.402;2023-05-23T10:35:00;11.43;;;4.63;;
41875;SDS011;27555;50.808;4.402;2023-05-23T10:46:13;10.02;;;2.70;;
41875;SDS011;27555;50.808;4.402;2023-05-23T10:48:42;6.93;;;2.80;;
41875;SDS011;27555;50.808;4.402;2023-05-23T10:53:38;3.92;;;2.17;;
41875;SDS011;27555;50.808;4.402;2023-05-23T10:56:09;6.20;;;2.78;;
41875;SDS011;27555;50.808;4.402;2023-05-23T10:58:43;4.43;;;1.88;;
41875;SDS011;27555;50.808;4.402;2023-05-23T11:01:09;5.32;;;2.10;;
41875;SDS011;27555;50.808;4.402;2023-05-23T11:09:04;6.95;;;2.65;;
41875;SDS011;27555;50.808;4.402;2023-05-23T11:19:38;8.63;;;2.72;;
41875;SDS011;27555;50.808;4.402;2023-05-23T11:22:07;8.23;;;3.05;;
41875;SDS011;27555;50.808;4.402;2023-05-23T11:24:49;8.88;;;2.53;;
41875;SDS011;27555;50.808;4.402;2023-05-23T11:27:17;7.28;;;2.28;;
41875;SDS011;27555;50.808;4.402;2023-05-23T11:32:31;4.82;;;2.35;;
41875;SDS011;27555;50.808;4.402;2023-05-23T11:35:01;11.05;;;2.25;;
41875;SDS011;27555;50.808;4.402;2023-05-23T11:37:28;8.00;;;2.63;;
41875;SDS011;27555;50.808;4.402;2023-05-23T11:39:55;7.60;;;2.50;;
41875;SDS011;27555;50.808;4.402;2023-05-23T11:42:21;10.77;;;2.65;;
41875;SDS011;27555;50.808;4.402;2023-05-23T11:44:51;11.75;;;2.53;;
41875;SDS011;27555;50.808;4.402;2023-05-23T11:47:17;15.52;;;3.08;;
41875;SDS011;27555;50.808;4.402;2023-05-23T11:49:43;8.18;;;2.60;;
41875;SDS011;27555;50.808;4.402;2023-05-23T11:52:11;12.68;;;3.03;;
41875;SDS011;27555;50.808;4.402;2023-05-23T11:54:38;6.32;;;2.47;;
41875;SDS011;27555;50.808;4.402;2023-05-23T11:57:06;15.85;;;2.90;;
41875;SDS011;27555;50.808;4.402;2023-05-23T11:59:32;10.75;;;2.75;;
41875;SDS011;27555;50.808;4.402;2023-05-23T12:01:58;10.32;;;3.08;;
41875;SDS011;27555;50.808;4.402;2023-05-23T12:04:26;14.75;;;3.90;;
41875;SDS011;27555;50.808;4.402;2023-05-23T12:06:52;11.70;;;3.03;;
41875;SDS011;27555;50.808;4.402;2023-05-23T12:09:18;9.48;;;3.38;;
41875;SDS011;27555;50.808;4.402;2023-05-23T12:11:43;21.88;;;4.28;;
41875;SDS011;27555;50.808;4.402;2023-05-23T12:14:13;17.88;;;3.90;;
41875;SDS011;27555;50.808;4.402;2023-05-23T12:16:41;14.85;;;3.70;;
41875;SDS011;27555;50.808;4.402;2023-05-23T12:19:11;14.38;;;3.17;;
41875;SDS011;27555;50.808;4.402;2023-05-23T12:21:41;17.10;;;3.60;;
41875;SDS011;27555;50.808;4.402;2023-05-23T12:24:16;17.88;;;3.78;;
41875;SDS011;27555;50.808;4.402;2023-05-23T12:26:57;21.75;;;3.95;;
41875;SDS011;27555;50.808;4.402;2023-05-23T12:29:27;11.80;;;2.67;;
41875;SDS011;27555;50.808;4.402;2023-05-23T12:31:58;15.10;;;2.90;;
41875;SDS011;27555;50.808;4.402;2023-05-23T12:34:24;13.75;;;3.45;;
41875;SDS011;27555;50.808;4.402;2023-05-23T12:36:53;22.75;;;3.25;;
41875;SDS011;27555;50.808;4.402;2023-05-23T12:39:29;11.57;;;2.78;;
41875;SDS011;27555;50.808;4.402;2023-05-23T12:41:57;13.00;;;2.95;;
41875;SDS011;27555;50.808;4.402;2023-05-23T12:44:32;14.75;;;2.83;;
41875;SDS011;27555;50.808;4.402;2023-05-23T12:46:57;12.95;;;3.40;;
41875;SDS011;27555;50.808;4.402;2023-05-23T12:49:23;12.20;;;3.40;;
41875;SDS011;27555;50.808;4.402;2023-05-23T12:51:49;14.43;;;3.13;;
41875;SDS011;27555;50.808;4.402;2023-05-23T12:54:14;13.70;;;2.92;;
41875;SDS011;27555;50.808;4.402;2023-05-23T12:56:41;20.17;;;4.20;;
41875;SDS011;27555;50.808;4.402;2023-05-23T12:59:06;15.75;;;3.50;;
41875;SDS011;27555;50.808;4.402;2023-05-23T13:01:32;16.67;;;3.30;;
41875;SDS011;27555;50.808;4.402;2023-05-23T13:03:59;15.70;;;2.92;;
41875;SDS011;27555;50.808;4.402;2023-05-23T13:06:25;17.52;;;3.83;;
41875;SDS011;27555;50.808;4.402;2023-05-23T13:08:52;15.38;;;3.65;;
41875;SDS011;27555;50.808;4.402;2023-05-23T13:11:19;14.18;;;3.47;;
41875;SDS011;27555;50.808;4.402;2023-05-23T13:13:46;16.25;;;3.53;;
41875;SDS011;27555;50.808;4.402;2023-05-23T13:16:12;32.63;;;3.95;;
41875;SDS011;27555;50.808;4.402;2023-05-23T13:18:38;18.65;;;2.85;;
41875;SDS011;27555;50.808;4.402;2023-05-23T13:21:04;22.73;;;3.75;;
41875;SDS011;27555;50.808;4.402;2023-05-23T13:23:30;17.05;;;3.45;;
41875;SDS011;27555;50.808;4.402;2023-05-23T13:25:56;20.92;;;4.22;;
41875;SDS011;27555;50.808;4.402;2023-05-23T13:28:22;17.98;;;3.53;;
41875;SDS011;27555;50.808;4.402;2023-05-23T13:30:48;18.00;;;3.85;;
41875;SDS011;27555;50.808;4.402;2023-05-23T13:33:14;17.83;;;3.40;;
41875;SDS011;27555;50.808;4.402;2023-05-23T13:35:40;18.42;;;3.67;;
41875;SDS011;27555;50.808;4.402;2023-05-23T13:38:05;19.50;;;3.25;;
41875;SDS011;27555;50.808;4.402;2023-05-23T13:40:31;13.38;;;3.00;;
41875;SDS011;27555;50.808;4.402;2023-05-23T13:42:57;18.40;;;3.65;;
41875;SDS011;27555;50.808;4.402;2023-05-23T13:45:22;17.27;;;3.33;;
41875;SDS011;27555;50.808;4.402;2023-05-23T13:47:48;12.23;;;3.25;;
41875;SDS011;27555;50.808;4.402;2023-05-23T13:50:14;12.60;;;3.90;;
41875;SDS011;27555;50.808;4.402;2023-05-23T13:52:41;19.05;;;4.07;;
41875;SDS011;27555;50.808;4.402;2023-05-23T13:55:07;17.02;;;4.00;;
41875;SDS011;27555;50.808;4.402;2023-05-23T13:57:33;15.65;;;2.90;;
41875;SDS011;27555;50.808;4.402;2023-05-23T13:59:58;26.42;;;3.80;;
41875;SDS011;27555;50.808;4.402;2023-05-23T14:02:27;16.35;;;3.13;;
41875;SDS011;27555;50.808;4.402;2023-05-23T14:04:55;16.73;;;3.58;;
41875;SDS011;27555;50.808;4.402;2023-05-23T14:07:22;22.33;;;3.45;;
41875;SDS011;27555;50.808;4.402;2023-05-23T14:09:47;18.65;;;3.97;;
41875;SDS011;27555;50.808;4.402;2023-05-23T14:12:13;16.92;;;4.32;;
41875;SDS011;27555;50.808;4.402;2023-05-23T14:14:39;15.00;;;3.50;;
41875;SDS011;27555;50.808;4.402;2023-05-23T14:17:05;22.48;;;4.18;;
41875;SDS011;27555;50.808;4.402;2023-05-23T14:19:31;18.77;;;3.67;;
41875;SDS011;27555;50.808;4.402;2023-05-23T14:21:56;14.02;;;3.60;;
41875;SDS011;27555;50.808;4.402;2023-05-23T14:24:22;14.13;;;2.53;;
41875;SDS011;27555;50.808;4.402;2023-05-23T14:26:48;16.13;;;3.72;;
41875;SDS011;27555;50.808;4.402;2023-05-23T14:29:14;19.17;;;4.65;;
41875;SDS011;27555;50.808;4.402;2023-05-23T14:31:40;8.55;;;2.55;;
41875;SDS011;27555;50.808;4.402;2023-05-23T14:34:06;16.10;;;3.10;;
41875;SDS011;27555;50.808;4.402;2023-05-23T14:36:32;11.00;;;3.40;;
41875;SDS011;27555;50.808;4.402;2023-05-23T14:38:57;14.82;;;3.80;;
41875;SDS011;27555;50.808;4.402;2023-05-23T14:41:25;15.20;;;2.95;;
41875;SDS011;27555;50.808;4.402;2023-05-23T14:43:52;15.05;;;3.17;;
41875;SDS011;27555;50.808;4.402;2023-05-23T14:46:18;12.25;;;2.97;;
41875;SDS011;27555;50.808;4.402;2023-05-23T14:48:45;12.45;;;2.70;;
41875;SDS011;27555;50.808;4.402;2023-05-23T14:51:10;16.65;;;2.88;;
41875;SDS011;27555;50.808;4.402;2023-05-23T14:53:36;9.95;;;2.80;;
41875;SDS011;27555;50.808;4.402;2023-05-23T14:56:01;16.50;;;3.05;;
41875;SDS011;27555;50.808;4.402;2023-05-23T14:58:27;20.30;;;3.85;;
41875;SDS011;27555;50.808;4.402;2023-05-23T15:00:53;21.85;;;4.22;;
41875;SDS011;27555;50.808;4.402;2023-05-23T15:03:21;15.32;;;3.17;;
41875;SDS011;27555;50.808;4.402;2023-05-23T15:05:47;20.45;;;4.00;;
41875;SDS011;27555;50.808;4.402;2023-05-23T15:08:15;14.10;;;2.97;;
41875;SDS011;27555;50.808;4.402;2023-05-23T15:10:42;16.95;;;2.90;;